Time;durP1;ratioP1;P1;durP2;ratioP2;P2;SDS_P1;SDS_P2;PMS_P1;PMS_P2;Temp;Humidity;BMP_temperature;BMP_pressure;BME280_temperature;BME280_humidity;BME280_pressure;Samples;Min_cycle;Max_cycle;Signal;HPM_P1;HPM_P2
2024/01/22 00:00:13;;;;;;;8.90;4.05;;;;;;;;;;5107436;27;19926;-87
2024/01/22 00:02:40;;;;;;;8.98;4.00;;;;;;;;;;5084093;27;20043;-87
2024/01/22 00:05:06;;;;;;;9.48;3.85;;;;;;;;;;5094919;28;20047;-87
2024/01/22 00:07:32;;;;;;;;;;;;;;;;;;5111653;28;20066;-87
2024/01/22 00:09:58;;;;;;;12.35;4.28;;;;;;;;;;5103666;28;19920;-87
2024/01/22 00:12:24;;;;;;;8.27;4.18;;;;;;;;;;5080897;28;20114;-87
2024/01/22 00:14:50;;;;;;;;;;;;;;;;;;5102386;27;20051;-88
2024/01/22 00:17:16;;;;;;;12.32;4.30;;;;;;;;;;5112238;27;19919;-88
2024/01/22 00:19:42;;;;;;;13.80;4.57;;;;;;;;;;5107463;27;20067;-88
2024/01/22 00:22:08;;;;;;;9.95;4.32;;;;;;;;;;5092702;27;20092;-86
2024/01/22 00:24:34;;;;;;;;;;;;;;;;;;5087635;28;20039;-89
2024/01/22 00:27:00;;;;;;;7.20;3.60;;;;;;;;;;5098459;27;19930;-85
2024/01/22 00:29:26;;;;;;;7.43;3.80;;;;;;;;;;5104472;27;20560;-88
2024/01/22 00:31:52;;;;;;;;;;;;;;;;;;5088927;28;20472;-89
2024/01/22 00:34:18;;;;;;;9.82;3.60;;;;;;;;;;5097891;28;20006;-87
2024/01/22 00:36:45;;;;;;;11.35;4.05;;;;;;;;;;5083275;28;20130;-88
2024/01/22 00:39:11;;;;;;;13.05;4.47;;;;;;;;;;5100823;27;20141;-88
2024/01/22 00:41:37;;;;;;;10.38;4.00;;;;;;;;;;5092312;28;20043;-88
2024/01/22 00:44:03;;;;;;;9.13;3.92;;;;;;;;;;5099223;27;20042;-87
2024/01/22 00:46:29;;;;;;;9.38;4.20;;;;;;;;;;5101298;27;20126;-88
2024/01/22 00:48:55;;;;;;;11.65;4.20;;;;;;;;;;5104141;27;20069;-87
2024/01/22 00:51:21;;;;;;;11.57;4.03;;;;;;;;;;5126341;27;20046;-88
2024/01/22 00:53:47;;;;;;;9.90;4.03;;;;;;;;;;5100964;27;20130;-88
2024/01/22 00:56:13;;;;;;;7.50;3.35;;;;;;;;;;5094178;27;20047;-88
2024/01/22 00:58:39;;;;;;;;;;;;;;;;;;5100794;27;20088;-88
2024/01/22 01:01:08;;;;;;;9.80;3.30;;;;;;;;;;5117654;27;19999;-88
2024/01/22 01:03:34;;;;;;;10.40;3.53;;;;;;;;;;5101876;27;20043;-89
2024/01/22 01:06:00;;;;;;;8.13;3.58;;;;;;;;;;5100191;27;20039;-88
2024/01/22 01:08:26;;;;;;;6.88;2.97;;;;;;;;;;5084311;27;20039;-88
2024/01/22 01:10:52;;;;;;;;;;;;;;;;;;5118434;27;20053;-87
2024/01/22 01:13:18;;;;;;;10.82;3.40;;;;;;;;;;5099656;27;20009;-88
2024/01/22 01:15:45;;;;;;;8.85;3.80;;;;;;;;;;5117946;27;20088;-88
2024/01/22 01:18:10;;;;;;;;;;;;;;;;;;5084153;28;20039;-88
2024/01/22 01:20:37;;;;;;;6.72;3.65;;;;;;;;;;5111167;27;20407;-87
2024/01/22 01:23:03;;;;;;;8.95;3.58;;;;;;;;;;5113445;27;20050;-87
2024/01/22 01:25:29;;;;;;;6.70;3.25;;;;;;;;;;5118082;27;20415;-88
2024/01/22 01:27:55;;;;;;;8.30;3.67;;;;;;;;;;5095795;28;20039;-88
2024/01/22 01:30:21;;;;;;;8.05;2.92;;;;;;;;;;5090765;28;20048;-87
2024/01/22 01:32:50;;;;;;;;;;;;;;;;;;5100919;27;20091;-90
2024/01/22 01:35:16;;;;;;;9.25;3.80;;;;;;;;;;5091077;27;19930;-89
2024/01/22 01:37:42;;;;;;;;;;;;;;;;;;5110731;27;20088;-87
2024/01/22 01:40:08;;;;;;;9.15;3.40;;;;;;;;;;5104856;27;19920;-88
2024/01/22 01:42:34;;;;;;;8.63;3.30;;;;;;;;;;5093467;27;20035;-88
2024/01/22 01:45:00;;;;;;;;;;;;;;;;;;5100225;27;20050;-89
2024/01/22 01:47:26;;;;;;;5.85;2.95;;;;;;;;;;5100004;27;19919;-88
2024/01/22 01:49:52;;;;;;;;;;;;;;;;;;5110557;28;20047;-89
2024/01/22 01:52:19;;;;;;;7.22;2.85;;;;;;;;;;5100034;27;19930;-88
2024/01/22 01:54:48;;;;;;;7.97;3.17;;;;;;;;;;5085276;28;20499;-87
2024/01/22 01:57:14;;;;;;;9.18;3.08;;;;;;;;;;5108076;28;20056;-87
2024/01/22 01:59:40;;;;;;;;;;;;;;;;;;5063421;28;20043;-86
2024/01/22 02:02:06;;;;;;;7.50;3.40;;;;;;;;;;5079069;28;19938;-86
2024/01/22 02:04:32;;;;;;;11.15;4.00;;;;;;;;;;5063108;28;20044;-87
2024/01/22 02:06:58;;;;;;;10.73;3.55;;;;;;;;;;5079486;28;20051;-88
2024/01/22 02:09:44;;;;;;;7.05;3.33;;;;;;;;;;5072429;27;20054;-84
2024/01/22 02:12:10;;;;;;;10.70;3.77;;;;;;;;;;5099006;27;20103;-84
2024/01/22 02:14:37;;;;;;;9.55;3.78;;;;;;;;;;5112886;28;20292;-83
2024/01/22 02:17:03;;;;;;;11.35;3.90;;;;;;;;;;5090826;27;20089;-83
2024/01/22 02:19:30;;;;;;;9.70;4.15;;;;;;;;;;5099423;27;20050;-82
2024/01/22 02:21:57;;;;;;;9.30;4.05;;;;;;;;;;5079062;28;20396;-83
2024/01/22 02:24:23;;;;;;;10.30;4.00;;;;;;;;;;5078578;28;20039;-82
2024/01/22 02:26:50;;;;;;;11.73;4.53;;;;;;;;;;5115876;27;20050;-83
2024/01/22 02:29:17;;;;;;;9.63;4.32;;;;;;;;;;5115299;27;20043;-84
2024/01/22 02:31:48;;;;;;;10.35;4.45;;;;;;;;;;5088218;28;20083;-84
2024/01/22 02:34:14;;;;;;;10.18;4.20;;;;;;;;;;5098637;27;20426;-84
2024/01/22 02:36:40;;;;;;;;;;;;;;;;;;5099198;27;20051;-84
2024/01/22 02:39:06;;;;;;;13.95;4.18;;;;;;;;;;5097582;27;19944;-83
2024/01/22 02:41:32;;;;;;;;;;;;;;;;;;5098863;27;20397;-85
2024/01/22 02:43:58;;;;;;;12.85;3.83;;;;;;;;;;5114765;27;19920;-85
2024/01/22 02:46:27;;;;;;;;;;;;;;;;;;5098396;27;20061;-84
2024/01/22 02:48:53;;;;;;;8.88;4.00;;;;;;;;;;5098908;27;19919;-84
2024/01/22 02:51:19;;;;;;;8.27;3.75;;;;;;;;;;5098276;27;20492;-84
2024/01/22 02:53:45;;;;;;;8.07;3.75;;;;;;;;;;5078107;28;20418;-85
2024/01/22 02:56:12;;;;;;;7.18;3.60;;;;;;;;;;5077847;28;20055;-85
2024/01/22 02:58:38;;;;;;;;;;;;;;;;;;5078277;28;20439;-85
2024/01/22 03:01:04;;;;;;;7.40;3.67;;;;;;;;;;5094746;28;19920;-85
2024/01/22 03:03:30;;;;;;;;;;;;;;;;;;5095471;28;20071;-85
2024/01/22 03:05:56;;;;;;;7.47;3.40;;;;;;;;;;5095285;28;20296;-85
2024/01/22 03:08:22;;;;;;;10.30;3.95;;;;;;;;;;5076710;28;20043;-85
2024/01/22 03:10:48;;;;;;;;;;;;;;;;;;5078669;28;20044;-84
2024/01/22 03:13:14;;;;;;;8.15;3.45;;;;;;;;;;5094334;28;19926;-84
2024/01/22 03:15:40;;;;;;;;;;;;;;;;;;5089975;28;20488;-84
2024/01/22 03:18:06;;;;;;;10.05;4.10;;;;;;;;;;5114643;27;19930;-87
2024/01/22 03:20:32;;;;;;;8.68;4.13;;;;;;;;;;5115429;28;20039;-84
2024/01/22 03:22:58;;;;;;;;;;;;;;;;;;5078326;28;20051;-83
2024/01/22 03:25:24;;;;;;;9.27;3.42;;;;;;;;;;5077828;28;19941;-82
2024/01/22 03:27:50;;;;;;;11.35;3.40;;;;;;;;;;5094375;28;20051;-83
2024/01/22 03:30:16;;;;;;;13.25;4.45;;;;;;;;;;5094308;28;20157;-84
2024/01/22 03:32:42;;;;;;;10.73;3.95;;;;;;;;;;5061026;28;20130;-85
2024/01/22 03:35:08;;;;;;;;;;;;;;;;;;5094821;28;20043;-86
2024/01/22 03:37:34;;;;;;;8.55;3.85;;;;;;;;;;5093129;28;19926;-85
2024/01/22 03:40:00;;;;;;;9.18;3.75;;;;;;;;;;5097928;28;20377;-85
2024/01/22 03:42:26;;;;;;;8.75;4.30;;;;;;;;;;5097336;28;20039;-85
2024/01/22 03:44:53;;;;;;;10.70;3.70;;;;;;;;;;5096954;28;20113;-84
2024/01/22 03:47:19;;;;;;;7.80;3.80;;;;;;;;;;5114256;28;20069;-85
2024/01/22 03:49:45;;;;;;;;;;;;;;;;;;5115301;28;20051;-85
2024/01/22 03:52:11;;;;;;;9.43;3.90;;;;;;;;;;5109903;28;19927;-85
2024/01/22 03:54:37;;;;;;;6.78;3.55;;;;;;;;;;5077292;28;20134;-86
2024/01/22 03:57:07;;;;;;;8.65;3.72;;;;;;;;;;5076881;28;20048;-84
2024/01/22 03:59:34;;;;;;;7.72;3.40;;;;;;;;;;5097045;28;20040;-85
2024/01/22 04:02:00;;;;;;;7.53;3.78;;;;;;;;;;5114289;28;20046;-85
2024/01/22 04:04:26;;;;;;;;;;;;;;;;;;5114545;28;20176;-85
2024/01/22 04:06:52;;;;;;;7.55;3.45;;;;;;;;;;5093841;28;20325;-85
2024/01/22 04:09:18;;;;;;;7.45;3.75;;;;;;;;;;5076953;28;20054;-84
2024/01/22 04:11:44;;;;;;;8.30;3.80;;;;;;;;;;5077094;28;20040;-85
2024/01/22 04:14:10;;;;;;;9.82;4.00;;;;;;;;;;5094071;28;20047;-86
2024/01/22 04:16:36;;;;;;;8.48;3.90;;;;;;;;;;5064671;28;20130;-86
2024/01/22 04:19:02;;;;;;;7.22;3.78;;;;;;;;;;5098600;27;20092;-86
2024/01/22 04:21:30;;;;;;;7.97;3.60;;;;;;;;;;5101007;27;20039;-85
2024/01/22 04:23:56;;;;;;;7.97;3.95;;;;;;;;;;5118408;27;20039;-85
2024/01/22 04:26:23;;;;;;;6.72;3.72;;;;;;;;;;5118452;27;20035;-85
2024/01/22 04:28:49;;;;;;;8.13;4.03;;;;;;;;;;5117962;27;20433;-85
2024/01/22 04:31:15;;;;;;;;;;;;;;;;;;5118352;27;20554;-86
2024/01/22 04:33:44;;;;;;;5.15;3.28;;;;;;;;;;5101453;27;19927;-86
2024/01/22 04:36:10;;;;;;;9.45;3.67;;;;;;;;;;5118165;27;20050;-85
2024/01/22 04:38:36;;;;;;;;;;;;;;;;;;5098008;28;20047;-84
2024/01/22 04:41:02;;;;;;;6.18;3.78;;;;;;;;;;5116911;27;20541;-85
2024/01/22 04:43:29;;;;;;;8.13;3.72;;;;;;;;;;5117647;27;20044;-85
2024/01/22 04:45:57;;;;;;;8.32;3.80;;;;;;;;;;5118112;27;20146;-86
2024/01/22 04:48:24;;;;;;;7.20;3.85;;;;;;;;;;5117728;27;20050;-85
2024/01/22 04:50:50;;;;;;;7.03;3.78;;;;;;;;;;5118303;27;20089;-87
2024/01/22 04:53:16;;;;;;;;;;;;;;;;;;5101434;27;20047;-86
2024/01/22 04:55:42;;;;;;;6.82;3.38;;;;;;;;;;5097214;28;19989;-86
2024/01/22 04:58:08;;;;;;;;;;;;;;;;;;5090620;27;20054;-87
2024/01/22 05:00:34;;;;;;;4.95;3.05;;;;;;;;;;5109338;27;19920;-85
2024/01/22 05:03:04;;;;;;;;;;;;;;;;;;5118062;27;20046;-87
2024/01/22 05:05:30;;;;;;;5.13;2.90;;;;;;;;;;5114561;27;19919;-85
2024/01/22 05:07:56;;;;;;;5.28;2.85;;;;;;;;;;5096230;28;20079;-85
2024/01/22 05:10:22;;;;;;;5.32;2.80;;;;;;;;;;5096688;28;20039;-86
2024/01/22 05:12:48;;;;;;;4.20;2.78;;;;;;;;;;5096241;28;20050;-85
2024/01/22 05:15:15;;;;;;;4.05;2.55;;;;;;;;;;5080346;28;20108;-85
2024/01/22 05:17:44;;;;;;;9.75;2.97;;;;;;;;;;5096251;28;20437;-85
2024/01/22 05:20:11;;;;;;;4.65;2.25;;;;;;;;;;5097152;28;20052;-86
2024/01/22 05:22:37;;;;;;;4.90;2.53;;;;;;;;;;5089703;27;20089;-86
2024/01/22 05:25:03;;;;;;;4.57;2.70;;;;;;;;;;5100435;27;20043;-86
2024/01/22 05:27:30;;;;;;;4.20;2.60;;;;;;;;;;5082806;27;20054;-86
2024/01/22 05:29:56;;;;;;;6.70;2.92;;;;;;;;;;5099519;27;20074;-86
2024/01/22 05:32:22;;;;;;;;;;;;;;;;;;5116638;27;20047;-88
2024/01/22 05:34:48;;;;;;;3.65;2.40;;;;;;;;;;5117194;27;19926;-86
2024/01/22 05:37:14;;;;;;;4.30;2.60;;;;;;;;;;5076626;28;20047;-86
2024/01/22 05:39:40;;;;;;;;;;;;;;;;;;5096608;28;20059;-85
2024/01/22 05:42:06;;;;;;;3.83;2.38;;;;;;;;;;5099326;27;19919;-85
2024/01/22 05:44:32;;;;;;;;;;;;;;;;;;5099390;27;20108;-86
2024/01/22 05:46:58;;;;;;;5.85;2.35;;;;;;;;;;5116765;27;19970;-86
2024/01/22 05:49:24;;;;;;;;;;;;;;;;;;5099707;27;20043;-88
2024/01/22 05:51:50;;;;;;;5.32;2.45;;;;;;;;;;5100051;27;19920;-85
2024/01/22 05:54:16;;;;;;;4.78;2.60;;;;;;;;;;5083256;27;20152;-86
2024/01/22 05:56:42;;;;;;;;;;;;;;;;;;5099362;27;20588;-86
2024/01/22 05:59:08;;;;;;;6.15;2.55;;;;;;;;;;5099409;27;19920;-86
2024/01/22 06:01:34;;;;;;;4.65;2.45;;;;;;;;;;5082662;27;20050;-86
2024/01/22 06:04:00;;;;;;;;;;;;;;;;;;5100319;27;20126;-86
2024/01/22 06:06:26;;;;;;;3.78;2.20;;;;;;;;;;5116276;27;19967;-87
2024/01/22 06:08:52;;;;;;;;;;;;;;;;;;5100311;27;20039;-86
2024/01/22 06:11:19;;;;;;;5.90;2.65;;;;;;;;;;5099780;27;19926;-86
2024/01/22 06:13:45;;;;;;;4.10;2.22;;;;;;;;;;5096697;27;20066;-84
2024/01/22 06:16:12;;;;;;;4.93;2.30;;;;;;;;;;5096118;28;20073;-85
2024/01/22 06:18:39;;;;;;;6.38;3.15;;;;;;;;;;5062539;28;20075;-83
2024/01/22 06:21:06;;;;;;;5.43;2.95;;;;;;;;;;5096501;28;20047;-85
2024/01/22 06:23:32;;;;;;;5.15;3.15;;;;;;;;;;5095623;28;20040;-86
2024/01/22 06:25:59;;;;;;;4.72;2.63;;;;;;;;;;5079260;28;20437;-86
2024/01/22 06:28:25;;;;;;;8.98;3.05;;;;;;;;;;5092631;27;20054;-87
2024/01/22 06:30:51;;;;;;;4.72;2.92;;;;;;;;;;5098705;27;20043;-86
2024/01/22 06:33:18;;;;;;;5.95;2.50;;;;;;;;;;5099052;27;20049;-86
2024/01/22 06:35:44;;;;;;;6.63;2.80;;;;;;;;;;5099140;27;20133;-86
2024/01/22 06:38:11;;;;;;;4.90;2.80;;;;;;;;;;5099317;27;20129;-86
2024/01/22 06:40:37;;;;;;;;;;;;;;;;;;5116329;27;20047;-86
2024/01/22 06:43:03;;;;;;;4.80;2.70;;;;;;;;;;5098335;27;19923;-85
2024/01/22 06:45:29;;;;;;;4.53;2.92;;;;;;;;;;5116097;27;20122;-85
2024/01/22 06:47:55;;;;;;;;;;;;;;;;;;5116212;27;20038;-85
2024/01/22 06:50:22;;;;;;;10.98;2.97;;;;;;;;;;5099188;27;20049;-86
2024/01/22 06:52:48;;;;;;;8.98;3.35;;;;;;;;;;5115722;27;20472;-88
2024/01/22 06:55:14;;;;;;;;;;;;;;;;;;5078856;28;20079;-86
2024/01/22 06:57:40;;;;;;;9.43;3.38;;;;;;;;;;5073744;28;20009;-86
2024/01/22 07:00:07;;;;;;;8.25;3.30;;;;;;;;;;5092144;28;20086;-86
2024/01/22 07:02:41;;;;;;;8.57;3.47;;;;;;;;;;5079394;28;20131;-87
2024/01/22 07:05:08;;;;;;;7.03;2.97;;;;;;;;;;5071755;28;20048;-86
2024/01/22 07:07:35;;;;;;;6.78;3.00;;;;;;;;;;5054343;28;20052;-87
2024/01/22 07:10:02;;;;;;;8.65;3.00;;;;;;;;;;5071148;28;20044;-86
2024/01/22 07:12:29;;;;;;;5.05;2.58;;;;;;;;;;5054586;28;20040;-85
2024/01/22 07:14:55;;;;;;;8.20;2.65;;;;;;;;;;5056555;28;20044;-85
2024/01/22 07:17:21;;;;;;;;;;;;;;;;;;5071902;28;20044;-86
2024/01/22 07:19:48;;;;;;;8.43;2.53;;;;;;;;;;5054482;28;19943;-86
2024/01/22 07:22:14;;;;;;;7.75;2.40;;;;;;;;;;5054356;28;20049;-86
2024/01/22 07:24:40;;;;;;;;;;;;;;;;;;5054670;28;20090;-87
2024/01/22 07:27:07;;;;;;;11.45;2.25;;;;;;;;;;5071229;28;19920;-87
2024/01/22 07:29:34;;;;;;;11.25;2.53;;;;;;;;;;5054423;28;20402;-87
2024/01/22 07:32:00;;;;;;;11.43;2.70;;;;;;;;;;5054607;28;20048;-87
2024/01/22 07:34:26;;;;;;;12.43;2.70;;;;;;;;;;5065786;28;20083;-87
2024/01/22 07:36:52;;;;;;;;;;;;;;;;;;5090822;28;20074;-87
2024/01/22 07:39:19;;;;;;;12.88;2.40;;;;;;;;;;5096332;28;20350;-86
2024/01/22 07:41:45;;;;;;;;;;;;;;;;;;5099721;28;20047;-83
2024/01/22 07:44:11;;;;;;;22.83;3.05;;;;;;;;;;5091461;28;19920;-87
2024/01/22 07:46:38;;;;;;;17.35;2.88;;;;;;;;;;5074272;28;20052;-87
2024/01/22 07:49:04;;;;;;;19.95;3.72;;;;;;;;;;5075193;28;20055;-88
2024/01/22 07:51:30;;;;;;;17.35;2.70;;;;;;;;;;5075005;28;20059;-84
2024/01/22 07:53:56;;;;;;;16.92;3.00;;;;;;;;;;5075053;28;20040;-87
2024/01/22 07:56:22;;;;;;;;;;;;;;;;;;5112821;28;20051;-88
2024/01/22 07:58:48;;;;;;;15.32;2.28;;;;;;;;;;5070830;28;19921;-87
2024/01/22 08:01:14;;;;;;;;;;;;;;;;;;5058315;28;20049;-87
2024/01/22 08:03:40;;;;;;;15.05;2.70;;;;;;;;;;5074319;28;19942;-87
2024/01/22 08:06:06;;;;;;;;;;;;;;;;;;5058720;28;20051;-87
2024/01/22 08:08:32;;;;;;;13.50;2.40;;;;;;;;;;5074627;28;19921;-86
2024/01/22 08:10:58;;;;;;;;;;;;;;;;;;5074739;28;20047;-86
2024/01/22 08:13:24;;;;;;;12.15;2.58;;;;;;;;;;5073799;28;20010;-87
2024/01/22 08:15:50;;;;;;;;;;;;;;;;;;5066393;28;20044;-86
2024/01/22 08:18:16;;;;;;;16.73;3.17;;;;;;;;;;5080276;28;19998;-87
2024/01/22 08:20:43;;;;;;;25.38;3.70;;;;;;;;;;5077548;28;20526;-87
2024/01/22 08:23:10;;;;;;;23.08;3.80;;;;;;;;;;5097231;28;20097;-88
2024/01/22 08:25:36;;;;;;;15.73;4.25;;;;;;;;;;5098012;28;20447;-87
2024/01/22 08:28:02;;;;;;;20.15;3.67;;;;;;;;;;5097552;28;20441;-88
2024/01/22 08:30:29;;;;;;;;;;;;;;;;;;5074672;28;20080;-88
2024/01/22 08:32:55;;;;;;;19.92;3.30;;;;;;;;;;5089239;28;19923;-88
2024/01/22 08:35:21;;;;;;;;;;;;;;;;;;5077383;28;20090;-88
2024/01/22 08:37:52;;;;;;;16.85;3.33;;;;;;;;;;5071470;28;19924;-85
2024/01/22 08:40:22;;;;;;;9.48;2.90;;;;;;;;;;5063510;28;20045;-86
2024/01/22 08:42:52;;;;;;;19.58;3.45;;;;;;;;;;5080148;28;20052;-85
2024/01/22 08:45:18;;;;;;;18.25;3.42;;;;;;;;;;5073933;28;20052;-85
2024/01/22 08:47:45;;;;;;;10.35;2.70;;;;;;;;;;5056806;28;20090;-86
2024/01/22 08:50:15;;;;;;;19.67;3.67;;;;;;;;;;5041125;28;20044;-89
2024/01/22 08:52:41;;;;;;;16.70;3.83;;;;;;;;;;5073747;28;20056;-85
2024/01/22 08:55:08;;;;;;;17.95;4.35;;;;;;;;;;5051713;28;20040;-85
2024/01/22 08:57:35;;;;;;;16.60;3.47;;;;;;;;;;5080318;28;20058;-86
2024/01/22 09:00:06;;;;;;;15.63;3.85;;;;;;;;;;5089390;28;20048;-86
2024/01/22 09:02:32;;;;;;;14.88;4.15;;;;;;;;;;5113164;28;20051;-85
2024/01/22 09:04:58;;;;;;;;;;;;;;;;;;5090699;28;20060;-85
2024/01/22 09:07:24;;;;;;;20.75;4.40;;;;;;;;;;5106235;28;20434;-85
2024/01/22 09:09:50;;;;;;;18.48;3.60;;;;;;;;;;5065310;28;20043;-85
2024/01/22 09:12:19;;;;;;;19.67;3.60;;;;;;;;;;5095295;28;20177;-84
2024/01/22 09:14:45;;;;;;;9.60;2.30;;;;;;;;;;5075577;28;20436;-84
2024/01/22 09:17:11;;;;;;;;;;;;;;;;;;5092347;28;20040;-86
2024/01/22 09:19:37;;;;;;;13.07;2.45;;;;;;;;;;5095437;28;19931;-86
2024/01/22 09:22:03;;;;;;;11.30;2.28;;;;;;;;;;5074251;28;20044;-84
2024/01/22 09:24:29;;;;;;;;;;;;;;;;;;5081110;28;20032;-84
2024/01/22 09:26:55;;;;;;;11.20;2.17;;;;;;;;;;5106525;28;19923;-87
2024/01/22 09:29:21;;;;;;;13.55;2.33;;;;;;;;;;5106525;28;20038;-87
2024/01/22 09:31:47;;;;;;;;;;;;;;;;;;5091832;28;20039;-86
2024/01/22 09:34:13;;;;;;;13.30;2.60;;;;;;;;;;5109218;28;19927;-87
2024/01/22 09:36:39;;;;;;;16.88;3.50;;;;;;;;;;5092165;28;20051;-84
2024/01/22 09:39:07;;;;;;;15.77;2.90;;;;;;;;;;5094973;28;20047;-87
2024/01/22 09:41:33;;;;;;;20.83;3.60;;;;;;;;;;5092669;28;20043;-86
2024/01/22 09:43:59;;;;;;;22.77;3.33;;;;;;;;;;5064884;28;20051;-87
2024/01/22 09:46:27;;;;;;;21.70;4.05;;;;;;;;;;5092720;28;20047;-87
2024/01/22 09:48:56;;;;;;;29.48;4.45;;;;;;;;;;5092160;28;20131;-86
2024/01/22 09:51:22;;;;;;;31.08;4.97;;;;;;;;;;5077724;28;20473;-86
2024/01/22 09:53:48;;;;;;;;;;;;;;;;;;5104488;28;20495;-86
2024/01/22 09:56:20;;;;;;;28.75;4.88;;;;;;;;;;5110935;28;20006;-87
2024/01/22 09:58:47;;;;;;;35.40;4.88;;;;;;;;;;5102861;28;20056;-87
2024/01/22 10:01:15;;;;;;;38.72;5.53;;;;;;;;;;5115957;27;20088;-87
2024/01/22 10:03:41;;;;;;;41.38;5.28;;;;;;;;;;5089813;28;20044;-88
2024/01/22 10:06:07;;;;;;;;;;;;;;;;;;5103678;28;20044;-87
2024/01/22 10:08:33;;;;;;;36.00;5.40;;;;;;;;;;5092002;28;19942;-85
2024/01/22 10:11:01;;;;;;;;;;;;;;;;;;5070169;28;20047;-87
2024/01/22 10:13:27;;;;;;;30.85;5.97;;;;;;;;;;5111319;28;20360;-87
2024/01/22 10:15:53;;;;;;;42.25;6.22;;;;;;;;;;5091253;28;20070;-85
2024/01/22 10:18:19;;;;;;;;;;;;;;;;;;5076960;28;20043;-87
2024/01/22 10:20:46;;;;;;;35.22;5.00;;;;;;;;;;5092148;28;19969;-86
2024/01/22 10:23:13;;;;;;;38.65;6.00;;;;;;;;;;5090877;28;20044;-85
2024/01/22 10:25:39;;;;;;;37.08;6.20;;;;;;;;;;5099833;28;20075;-87
2024/01/22 10:28:09;;;;;;;33.42;5.65;;;;;;;;;;5110140;28;20039;-87
2024/01/22 10:30:37;;;;;;;38.80;5.72;;;;;;;;;;5112207;28;20047;-86
2024/01/22 10:33:10;;;;;;;52.42;6.32;;;;;;;;;;5110676;28;20046;-86
2024/01/22 10:35:36;;;;;;;40.30;5.57;;;;;;;;;;5091621;28;20079;-86
2024/01/22 10:38:12;;;;;;;43.35;6.43;;;;;;;;;;5090795;28;20051;-87
2024/01/22 10:40:38;;;;;;;49.53;6.80;;;;;;;;;;5082384;28;20378;-86
2024/01/22 10:43:17;;;;;;;51.05;7.25;;;;;;;;;;5089987;28;20055;-87
2024/01/22 10:45:44;;;;;;;37.60;7.38;;;;;;;;;;5084178;28;20140;-86
2024/01/22 10:48:11;;;;;;;45.42;6.60;;;;;;;;;;5090989;28;20079;-87
2024/01/22 10:50:36;;;;;;;;;;;;;;;;;;5091934;28;20048;-88
2024/01/22 10:53:03;;;;;;;51.08;6.25;;;;;;;;;;5090874;28;19969;-87
2024/01/22 10:55:29;;;;;;;39.78;5.30;;;;;;;;;;5074868;28;20040;-87
2024/01/22 10:57:57;;;;;;;44.42;6.03;;;;;;;;;;5073258;28;20052;-87
2024/01/22 11:00:23;;;;;;;33.83;5.80;;;;;;;;;;5087662;28;20072;-87
2024/01/22 11:02:49;;;;;;;;;;;;;;;;;;5096052;28;20040;-88
2024/01/22 11:05:15;;;;;;;38.58;5.70;;;;;;;;;;5074085;28;19924;-87
2024/01/22 11:07:41;;;;;;;43.10;6.68;;;;;;;;;;5057813;28;20055;-87
2024/01/22 11:10:11;;;;;;;50.05;6.70;;;;;;;;;;5077814;28;20055;-87
2024/01/22 11:12:43;;;;;;;38.05;5.22;;;;;;;;;;5106009;28;20130;-86
2024/01/22 11:15:10;;;;;;;44.05;5.85;;;;;;;;;;5075703;28;20044;-81
2024/01/22 11:17:36;;;;;;;36.88;5.47;;;;;;;;;;5093772;28;20062;-82
2024/01/22 11:20:15;;;;;;;29.30;4.93;;;;;;;;;;5082741;28;20092;-83
2024/01/22 11:22:41;;;;;;;39.13;6.75;;;;;;;;;;5090636;28;20509;-82
2024/01/22 11:25:09;;;;;;;;;;;;;;;;;;5090947;28;20079;-82
2024/01/22 11:27:39;;;;;;;44.80;6.43;;;;;;;;;;5083445;28;19930;-82
2024/01/22 11:30:21;;;;;;;28.38;5.03;;;;;;;;;;5093154;28;20050;-85
2024/01/22 11:32:47;;;;;;;34.75;5.53;;;;;;;;;;5111009;28;20078;-81
2024/01/22 11:35:31;;;;;;;41.08;5.82;;;;;;;;;;5102725;28;20131;-83
2024/01/22 11:37:57;;;;;;;28.30;4.78;;;;;;;;;;5091702;28;20598;-87
2024/01/22 11:40:50;;;;;;;38.08;4.47;;;;;;;;;;5074154;28;20083;-85
2024/01/22 11:43:19;;;;;;;28.17;5.38;;;;;;;;;;5077128;28;20073;-88
2024/01/22 11:45:46;;;;;;;37.70;5.35;;;;;;;;;;5094679;28;20044;-88
2024/01/22 11:48:19;;;;;;;26.80;4.78;;;;;;;;;;5092398;28;20126;-86
2024/01/22 11:51:04;;;;;;;31.73;4.75;;;;;;;;;;5105288;28;20104;-86
2024/01/22 11:53:31;;;;;;;32.83;5.28;;;;;;;;;;5110477;28;20043;-85
2024/01/22 11:56:04;;;;;;;26.65;5.40;;;;;;;;;;5093291;28;20040;-85
2024/01/22 11:58:31;;;;;;;28.95;4.43;;;;;;;;;;5092077;28;20086;-85
2024/01/22 12:00:58;;;;;;;32.38;4.90;;;;;;;;;;5093582;28;20044;-85
2024/01/22 12:03:25;;;;;;;29.20;4.65;;;;;;;;;;5104649;28;20040;-85
2024/01/22 12:06:00;;;;;;;43.22;6.43;;;;;;;;;;5091576;28;20131;-84
2024/01/22 12:08:26;;;;;;;26.17;5.38;;;;;;;;;;5108775;28;20078;-85
2024/01/22 12:10:56;;;;;;;39.15;5.05;;;;;;;;;;5110035;28;20044;-87
2024/01/22 12:13:23;;;;;;;29.70;4.72;;;;;;;;;;5093476;28;20044;-84
2024/01/22 12:15:55;;;;;;;29.15;5.18;;;;;;;;;;5093607;28;20073;-88
2024/01/22 12:18:25;;;;;;;29.58;4.72;;;;;;;;;;5105108;28;20050;-88
2024/01/22 12:20:51;;;;;;;22.70;4.43;;;;;;;;;;5098545;28;20075;-87
2024/01/22 12:23:30;;;;;;;24.63;3.90;;;;;;;;;;5072174;28;20079;-88
2024/01/22 12:25:57;;;;;;;24.52;4.35;;;;;;;;;;5090784;28;20056;-89
2024/01/22 12:28:23;;;;;;;22.08;3.75;;;;;;;;;;5081598;28;20135;-88
2024/01/22 12:31:02;;;;;;;23.55;5.80;;;;;;;;;;5104707;28;20500;-88
2024/01/22 12:33:29;;;;;;;20.48;4.10;;;;;;;;;;5094405;28;20044;-86
2024/01/22 12:36:06;;;;;;;28.25;4.20;;;;;;;;;;5094139;28;20048;-88
2024/01/22 12:38:33;;;;;;;26.67;4.20;;;;;;;;;;5078782;28;20056;-89
2024/01/22 12:41:09;;;;;;;20.48;3.75;;;;;;;;;;5109355;28;20039;-87
2024/01/22 12:43:36;;;;;;;23.20;4.10;;;;;;;;;;5113557;28;20039;-89
2024/01/22 12:46:13;;;;;;;23.20;4.47;;;;;;;;;;5098146;28;20051;-88
2024/01/22 12:48:39;;;;;;;30.20;4.60;;;;;;;;;;5105597;28;20044;-87
2024/01/22 12:51:06;;;;;;;22.33;4.38;;;;;;;;;;5099252;28;20183;-88
2024/01/22 12:53:33;;;;;;;27.67;4.05;;;;;;;;;;5078611;28;20040;-87
2024/01/22 12:55:59;;;;;;;25.23;4.18;;;;;;;;;;5093295;28;20044;-81
2024/01/22 12:58:28;;;;;;;28.73;3.88;;;;;;;;;;5088480;28;20100;-88
2024/01/22 13:00:55;;;;;;;21.63;4.18;;;;;;;;;;5106039;28;20044;-87
2024/01/22 13:03:21;;;;;;;27.05;3.88;;;;;;;;;;5085227;28;20498;-84
2024/01/22 13:05:48;;;;;;;28.23;3.90;;;;;;;;;;5106852;28;20042;-86
2024/01/22 13:08:14;;;;;;;24.35;4.10;;;;;;;;;;5094519;28;20482;-86
2024/01/22 13:10:40;;;;;;;15.18;3.67;;;;;;;;;;5093403;28;20126;-87
2024/01/22 13:13:06;;;;;;;;;;;;;;;;;;5088953;28;20131;-85
2024/01/22 13:15:32;;;;;;;18.08;3.40;;;;;;;;;;5102849;28;20015;-86
2024/01/22 13:17:59;;;;;;;23.75;3.85;;;;;;;;;;5104654;28;20138;-88
2024/01/22 13:20:26;;;;;;;26.58;3.92;;;;;;;;;;5084343;28;20247;-87
2024/01/22 13:22:52;;;;;;;26.70;4.57;;;;;;;;;;5105079;28;20512;-87
2024/01/22 13:25:21;;;;;;;20.92;4.43;;;;;;;;;;5096638;28;20103;-89
2024/01/22 13:27:51;;;;;;;19.75;3.88;;;;;;;;;;5102765;28;20168;-90
2024/01/22 13:30:17;;;;;;;26.40;4.00;;;;;;;;;;5110576;28;20093;-87
2024/01/22 13:32:43;;;;;;;21.63;3.70;;;;;;;;;;5075793;28;20040;-88
2024/01/22 13:35:12;;;;;;;24.05;4.22;;;;;;;;;;5094345;28;20465;-88
2024/01/22 13:37:38;;;;;;;31.33;3.30;;;;;;;;;;5095782;28;20047;-86
2024/01/22 13:40:14;;;;;;;31.08;3.83;;;;;;;;;;5106491;28;20101;-88
2024/01/22 13:42:40;;;;;;;21.88;4.32;;;;;;;;;;5098673;28;20043;-87
2024/01/22 13:45:07;;;;;;;20.42;3.83;;;;;;;;;;5113297;28;20126;-88
2024/01/22 13:47:33;;;;;;;24.30;4.65;;;;;;;;;;5078851;28;20043;-88
2024/01/22 13:50:01;;;;;;;;;;;;;;;;;;5077789;28;20040;-85
2024/01/22 13:52:28;;;;;;;18.73;3.72;;;;;;;;;;5101169;28;20368;-82
2024/01/22 13:54:54;;;;;;;27.90;4.40;;;;;;;;;;5112748;28;20054;-86
2024/01/22 13:57:20;;;;;;;22.55;4.00;;;;;;;;;;5115331;27;20122;-85
2024/01/22 13:59:46;;;;;;;26.38;4.40;;;;;;;;;;5113457;27;20138;-79
2024/01/22 14:02:12;;;;;;;21.80;3.70;;;;;;;;;;5106948;28;20043;-85
2024/01/22 14:04:41;;;;;;;;;;;;;;;;;;5078573;28;20039;-87
2024/01/22 14:07:07;;;;;;;31.02;4.93;;;;;;;;;;5093712;27;19934;-87
2024/01/22 14:09:33;;;;;;;;;;;;;;;;;;5134605;27;20043;-87
2024/01/22 14:11:59;;;;;;;16.73;3.30;;;;;;;;;;5136252;27;19925;-84
2024/01/22 14:14:25;;;;;;;;;;;;;;;;;;5135553;27;20720;-84
2024/01/22 14:16:51;;;;;;;19.08;3.58;;;;;;;;;;5134624;27;19958;-85
2024/01/22 14:19:17;;;;;;;;;;;;;;;;;;5118467;27;20068;-83
2024/01/22 14:21:43;;;;;;;26.42;4.43;;;;;;;;;;5135426;27;19919;-84
2024/01/22 14:24:09;;;;;;;;;;;;;;;;;;5108818;27;20089;-84
2024/01/22 14:26:35;;;;;;;21.17;3.88;;;;;;;;;;5131926;27;19927;-84
2024/01/22 14:29:03;;;;;;;;;;;;;;;;;;5135336;27;20091;-84
2024/01/22 14:31:29;;;;;;;22.92;3.65;;;;;;;;;;5118028;27;19926;-83
2024/01/22 14:33:55;;;;;;;27.33;4.18;;;;;;;;;;5118500;27;20117;-84
2024/01/22 14:36:21;;;;;;;26.33;3.97;;;;;;;;;;5118810;27;20058;-79
2024/01/22 14:38:47;;;;;;;29.75;4.65;;;;;;;;;;5117918;27;20050;-86
2024/01/22 14:41:13;;;;;;;20.00;3.85;;;;;;;;;;5135766;27;20422;-83
2024/01/22 14:43:39;;;;;;;;;;;;;;;;;;5103684;27;20472;-84
2024/01/22 14:46:05;;;;;;;23.65;3.80;;;;;;;;;;5121590;27;19927;-84
2024/01/22 14:48:31;;;;;;;;;;;;;;;;;;5133399;27;20053;-83
2024/01/22 14:50:58;;;;;;;23.92;4.22;;;;;;;;;;5134346;27;19926;-84
2024/01/22 14:53:24;;;;;;;23.90;4.10;;;;;;;;;;5101363;27;20054;-85
2024/01/22 14:55:50;;;;;;;;;;;;;;;;;;5118423;27;20076;-85